Time;durP1;ratioP1;P1;durP2;ratioP2;P2;SDS_P1;SDS_P2;PMS_P1;PMS_P2;Temp;Humidity;BMP_temperature;BMP_pressure;BME280_temperature;BME280_humidity;BME280_pressure;Samples;Min_cycle;Max_cycle;Signal;HPM_P1;HPM_P2
2023/07/13 00:02:11;;;;;;;5.68;1.20;;;20.40;99.90;;;;;;4916839;29;20032;-64
2023/07/13 00:04:37;;;;;;;2.53;1.20;;;;;;;;;;4915750;29;20096;-64
2023/07/13 00:07:10;;;;;;;4.30;1.10;;;;;;;;;;4904281;29;20367;-64
2023/07/13 00:09:38;;;;;;;5.40;1.20;;;;;;;;;;4897086;29;20104;-64
2023/07/13 00:12:06;;;;;;;2.85;1.10;;;;;;;;;;4897219;29;20043;-64
2023/07/13 00:14:34;;;;;;;1.33;0.70;;;;;;;;;;4897205;29;20088;-64
2023/07/13 00:17:00;;;;;;;4.53;1.10;;;;;;;;;;4899386;29;20025;-64
2023/07/13 00:19:26;;;;;;;3.00;1.23;;;;;;;;;;4914675;29;20076;-64
2023/07/13 00:21:55;;;;;;;2.92;1.00;;;;;;;;;;4915454;29;20381;-65
2023/07/13 00:24:23;;;;;;;3.53;1.10;;;;;;;;;;4915891;29;20067;-65
2023/07/13 00:26:49;;;;;;;3.63;1.35;;;;;;;;;;4915385;29;20062;-65
2023/07/13 00:29:16;;;;;;;3.17;0.95;;;;;;;;;;4915901;29;20114;-64
2023/07/13 00:31:43;;;;;;;2.92;1.00;;;;;;;;;;4915168;29;20537;-65
2023/07/13 00:34:09;;;;;;;5.88;1.00;;;;;;;;;;4911723;29;20080;-65
2023/07/13 00:36:35;;;;;;;2.90;1.23;;;;;;;;;;4899110;29;20067;-64
2023/07/13 00:39:02;;;;;;;2.17;0.90;;;;;;;;;;4914316;29;20028;-64
2023/07/13 00:41:28;;;;;;;6.30;1.52;;;;;;;;;;4915694;29;20351;-64
2023/07/13 00:43:54;;;;;;;5.22;1.00;;;;;;;;;;4914586;29;20035;-64
2023/07/13 00:46:22;;;;;;;6.47;1.30;;;;;;;;;;4915925;29;20373;-65
2023/07/13 00:48:49;;;;;;;2.65;1.02;;;;;;;;;;4913588;29;20378;-64
2023/07/13 00:51:17;;;;;;;2.88;0.80;;;;;;;;;;4914122;29;20079;-65
2023/07/13 00:53:43;;;;;;;5.20;1.55;;;;;;;;;;4914587;29;20114;-66
2023/07/13 00:56:09;;;;;;;4.05;1.08;;;;;;;;;;4915893;29;20035;-64
2023/07/13 00:58:35;;;;;;;2.85;1.08;;;;;;;;;;4915826;29;20099;-64
2023/07/13 01:01:01;;;;;;;5.18;1.38;;;;;;;;;;4914740;29;20051;-65
2023/07/13 01:03:28;;;;;;;3.33;0.95;;;;;;;;;;4915896;29;20035;-65
2023/07/13 01:05:54;;;;;;;4.70;1.38;;;;;;;;;;4908062;29;20442;-64
2023/07/13 01:08:21;;;;;;;3.47;1.20;;;;;;;;;;4915936;29;20489;-65
2023/07/13 01:10:54;;;;;;;3.85;1.20;;;;;;;;;;4914655;29;20028;-65
2023/07/13 01:13:23;;;;;;;1.92;0.93;;;;;;;;;;4915719;29;20036;-65
2023/07/13 01:15:50;;;;;;;5.55;1.20;;;;;;;;;;4914802;29;20504;-65
2023/07/13 01:18:18;;;;;;;4.82;1.30;;;;;;;;;;4917599;29;20115;-64
2023/07/13 01:20:58;;;;;;;3.88;1.50;;;;;;;;;;4914419;29;20034;-65
2023/07/13 01:23:25;;;;;;;4.57;1.50;;;;;;;;;;4910185;29;20068;-64
2023/07/13 01:25:55;;;;;;;3.50;1.08;;;;;;;;;;4914157;29;20029;-64
2023/07/13 01:28:21;;;;;;;4.35;1.55;;;;;;;;;;4915095;29;20488;-64
2023/07/13 01:30:48;;;;;;;3.88;1.00;;;;;;;;;;4914299;29;20135;-64
2023/07/13 01:33:14;;;;;;;3.55;1.00;;;;;;;;;;4915155;29;20056;-64
2023/07/13 01:35:41;;;;;;;2.50;0.90;;;;;;;;;;4914470;29;20025;-65
2023/07/13 01:38:08;;;;;;;3.78;0.98;;;;;;;;;;4912465;29;20462;-64
2023/07/13 01:40:35;;;;;;;3.22;1.13;;;;;;;;;;4915116;29;20024;-64
2023/07/13 01:43:01;;;;;;;4.90;1.23;;;;;;;;;;4914656;29;20123;-64
2023/07/13 01:45:27;;;;;;;6.68;1.40;;;;;;;;;;4915024;29;20078;-65
2023/07/13 01:47:53;;;;;;;1.75;0.98;;;;;;;;;;4914425;29;20398;-65
2023/07/13 01:50:19;;;;;;;4.82;1.45;;;;;;;;;;4916944;29;20028;-65
2023/07/13 01:52:45;;;;;;;5.03;1.40;;;;;;;;;;4918823;29;20470;-64
2023/07/13 01:55:11;;;;;;;2.65;1.00;;;;;;;;;;4915622;29;20429;-64
2023/07/13 01:57:37;;;;;;;1.15;0.80;;;;;;;;;;4918888;29;20039;-65
2023/07/13 02:00:07;;;;;;;3.08;1.20;;;;;;;;;;4918268;29;20025;-64
2023/07/13 02:02:33;;;;;;;2.15;0.90;;;;;;;;;;4918933;29;20027;-64
2023/07/13 02:04:59;;;;;;;7.82;1.35;;;;;;;;;;4917292;29;20025;-65
2023/07/13 02:07:25;;;;;;;3.85;1.13;;;;;;;;;;4918912;29;20060;-64
2023/07/13 02:09:51;;;;;;;3.63;1.00;;;;;;;;;;4917711;29;20028;-65
2023/07/13 02:12:20;;;;;;;2.72;1.20;;;;;;;;;;4915621;29;20031;-64
2023/07/13 02:14:48;;;;;;;2.47;1.30;;;;;;;;;;4916900;29;20040;-65
2023/07/13 02:17:14;;;;;;;3.78;0.80;;;;;;;;;;4918226;29;20040;-64
2023/07/13 02:19:40;;;;;;;5.68;1.25;;;;;;;;;;4917601;29;20035;-65
2023/07/13 02:22:07;;;;;;;3.20;1.30;;;;;;;;;;4918258;29;20430;-65
2023/07/13 02:24:32;;;;;;;1.88;0.98;;;;;;;;;;4918031;29;20087;-64
2023/07/13 02:26:59;;;;;;;3.38;1.13;;;;;;;;;;4915764;29;20036;-64
2023/07/13 02:29:25;;;;;;;3.80;1.40;;;;;;;;;;4914789;29;20091;-64
2023/07/13 02:31:51;;;;;;;3.20;1.20;;;;;;;;;;4917661;29;20024;-64
2023/07/13 02:34:17;;;;;;;3.80;1.30;;;;;;;;;;4917215;29;20056;-65
2023/07/13 02:36:43;;;;;;;2.83;1.25;;;;;;;;;;4917483;29;20039;-65
2023/07/13 02:39:09;;;;;;;3.10;1.48;;;;;;;;;;4917959;29;20024;-64
2023/07/13 02:41:38;;;;;;;3.03;1.15;;;;;;;;;;4918087;29;20107;-64
2023/07/13 02:44:04;;;;;;;4.32;1.30;;;;;;;;;;4914466;29;20024;-64
2023/07/13 02:46:34;;;;;;;2.85;1.10;;;;;;;;;;4917243;29;20032;-64
2023/07/13 02:49:00;;;;;;;2.42;1.00;;;;;;;;;;4916702;29;20791;-64
2023/07/13 02:51:26;;;;;;;4.03;1.33;;;;;;;;;;4918194;29;20024;-64
2023/07/13 02:53:52;;;;;;;3.65;1.40;;;;;;;;;;4916869;29;20389;-65
2023/07/13 02:56:19;;;;;;;2.63;1.00;;;;;;;;;;4917569;29;20390;-64
2023/07/13 02:58:45;;;;;;;3.13;1.10;;;;;;;;;;4916481;29;20354;-64
2023/07/13 03:01:12;;;;;;;1.95;1.00;;;;;;;;;;4898021;29;20043;-63
2023/07/13 03:03:38;;;;;;;2.78;1.35;;;;;;;;;;4917264;29;20466;-64
2023/07/13 03:06:07;;;;;;;4.20;1.10;;;;;;;;;;4917076;29;20028;-63
2023/07/13 03:08:33;;;;;;;3.30;0.77;;;;;;;;;;4917814;29;20032;-64
2023/07/13 03:11:03;;;;;;;1.15;0.85;;;;;;;;;;4906012;29;20028;-64
2023/07/13 03:13:29;;;;;;;4.82;1.20;;;;;;;;;;4898678;29;20033;-65
2023/07/13 03:15:55;;;;;;;3.40;1.20;;;;;;;;;;4897880;29;20033;-65
2023/07/13 03:18:24;;;;;;;6.93;1.42;;;;;;;;;;4916769;29;20107;-63
2023/07/13 03:20:52;;;;;;;2.30;1.17;;;;;;;;;;4916156;29;20119;-64
2023/07/13 03:23:19;;;;;;;4.32;1.10;;;;;;;;;;4917477;29;20370;-64
2023/07/13 03:25:45;;;;;;;6.03;1.38;;;;;;;;;;4916365;29;20036;-64
2023/07/13 03:28:14;;;;;;;1.40;1.17;;;;;;;;;;4917490;29;20028;-64
2023/07/13 03:30:40;;;;;;;3.03;1.08;;;;;;;;;;4916554;29;20343;-65
2023/07/13 03:33:06;;;;;;;4.57;1.23;;;;;;;;;;4914346;29;20028;-64
2023/07/13 03:35:32;;;;;;;2.28;1.00;;;;;;;;;;4916051;29;20036;-64
2023/07/13 03:37:59;;;;;;;4.63;1.30;;;;;;;;;;4916472;29;20076;-64
2023/07/13 03:40:28;;;;;;;2.45;1.27;;;;;;;;;;4916467;29;20092;-64
2023/07/13 03:42:54;;;;;;;2.28;1.10;;;;;;;;;;4916252;29;20071;-64
2023/07/13 03:45:20;;;;;;;1.45;1.02;;;;;;;;;;4916771;29;20042;-64
2023/07/13 03:47:46;;;;;;;3.95;1.08;;;;;;;;;;4915912;29;20103;-64
2023/07/13 03:50:12;;;;;;;3.00;1.00;;;;;;;;;;4913138;29;20024;-64
2023/07/13 03:52:38;;;;;;;2.13;0.90;;;;;;;;;;4916790;29;20036;-64
2023/07/13 03:55:05;;;;;;;3.83;1.33;;;;;;;;;;4916164;29;20091;-64
2023/07/13 03:57:31;;;;;;;2.17;1.08;;;;;;;;;;4916889;29;20028;-64
2023/07/13 03:59:57;;;;;;;1.88;1.20;;;;;;;;;;4915347;29;20024;-63
2023/07/13 04:02:23;;;;;;;1.85;0.93;;;;;;;;;;4917306;29;20024;-64
2023/07/13 04:04:49;;;;;;;3.63;1.20;;;;;;;;;;4914732;29;20184;-64
2023/07/13 04:07:15;;;;;;;2.60;1.00;;;;;;;;;;4912725;29;20036;-64
2023/07/13 04:09:41;;;;;;;4.13;1.33;;;;;;;;;;4915434;29;20246;-65
2023/07/13 04:12:07;;;;;;;1.40;1.13;;;;;;;;;;4916426;29;20020;-65
2023/07/13 04:14:33;;;;;;;5.40;1.30;;;;;;;;;;4916012;29;20110;-65
2023/07/13 04:16:59;;;;;;;2.67;1.00;;;;;;;;;;4915709;29;20731;-65
2023/07/13 04:19:25;;;;;;;2.75;1.33;;;;;;;;;;4916054;29;20035;-65
2023/07/13 04:21:51;;;;;;;1.35;0.95;;;;;;;;;;4915473;29;20103;-65
2023/07/13 04:24:17;;;;;;;2.55;1.33;;;;;;;;;;4910306;29;20027;-65
2023/07/13 04:26:43;;;;;;;3.08;1.27;;;;;;;;;;4915741;29;20170;-66
2023/07/13 04:29:09;;;;;;;3.45;1.30;;;;;;;;;;4915809;29;20541;-64
2023/07/13 04:31:35;;;;;;;2.05;1.20;;;;;;;;;;4901415;29;20032;-65
2023/07/13 04:34:02;;;;;;;4.72;1.25;;;;;;;;;;4904477;29;20060;-64
2023/07/13 04:36:28;;;;;;;7.60;1.30;;;;;;;;;;4916297;29;20028;-64
2023/07/13 04:38:55;;;;;;;2.20;0.98;;;;;;;;;;4914942;29;20044;-65
2023/07/13 04:41:21;;;;;;;3.72;1.13;;;;;;;;;;4912748;29;20088;-63
2023/07/13 04:43:47;;;;;;;2.55;1.15;;;;;;;;;;4914760;29;20039;-63
2023/07/13 04:46:15;;;;;;;2.30;1.10;;;;;;;;;;4916356;29;20541;-63
2023/07/13 04:48:41;;;;;;;2.28;1.20;;;;;;;;;;4914803;29;20080;-64
2023/07/13 04:51:07;;;;;;;3.05;1.00;;;;;;;;;;4915974;29;20020;-65
2023/07/13 04:53:34;;;;;;;3.92;1.10;;;;;;;;;;4915954;29;20024;-63
2023/07/13 04:56:00;;;;;;;2.65;1.10;;;;;;;;;;4911160;29;20610;-70
2023/07/13 04:58:27;;;;;;;2.08;1.10;;;;;;;;;;4906238;29;20028;-68
2023/07/13 05:01:06;;;;;;;2.28;1.38;;;;;;;;;;4896853;29;20029;-70
2023/07/13 05:03:32;;;;;;;2.45;1.30;;;;;;;;;;4897823;29;20491;-69
2023/07/13 05:06:02;;;;;;;5.53;3.13;;;;;;;;;;4895646;29;20043;-70
2023/07/13 05:08:29;;;;;;;4.45;2.10;;;;;;;;;;4896379;29;20478;-69
2023/07/13 05:10:55;;;;;;;4.97;2.20;;;;;;;;;;4878294;29;20043;-77
2023/07/13 05:13:21;;;;;;;4.95;2.20;;;;;;;;;;4880004;29;20036;-72
2023/07/13 05:15:48;;;;;;;3.08;1.77;;;;;;;;;;4900939;29;20024;-71
2023/07/13 05:18:14;;;;;;;4.10;1.75;;;;;;;;;;4898581;29;20145;-71
2023/07/13 05:20:40;;;;;;;6.28;1.40;;;;;;;;;;4914342;29;20106;-72
2023/07/13 05:23:06;;;;;;;3.40;1.48;;;;;;;;;;4909570;29;20037;-70
2023/07/13 05:25:32;;;;;;;4.60;1.58;;;;;;;;;;4910301;29;20036;-70
2023/07/13 05:27:58;;;;;;;1.67;1.40;;;;;;;;;;4911643;29;20032;-69
2023/07/13 05:30:24;;;;;;;5.05;1.60;;;;;;;;;;4900967;29;20099;-70
2023/07/13 05:32:50;;;;;;;2.78;1.20;;;;;;;;;;4916668;29;20035;-69
2023/07/13 05:35:19;;;;;;;4.10;1.50;;;;;;;;;;4923626;29;20126;-69
2023/07/13 05:37:50;;;;;;;3.30;1.20;;;;;;;;;;4901972;29;20453;-69
2023/07/13 05:40:16;;;;;;;2.53;1.38;;;;;;;;;;4927665;29;20024;-69
2023/07/13 05:42:42;;;;;;;2.92;1.05;;;;;;;;;;4935256;29;20030;-69
2023/07/13 05:45:08;;;;;;;2.67;1.35;;;;;;;;;;4922233;29;20501;-72
2023/07/13 05:47:34;;;;;;;6.07;1.25;;;;;;;;;;4917648;29;20032;-72
2023/07/13 05:50:01;;;;;;;6.00;1.60;;;;;;;;;;4903934;29;20385;-72
2023/07/13 05:52:27;;;;;;;3.83;1.83;;;;;;;;;;4919213;29;20445;-69
2023/07/13 05:54:53;;;;;;;3.92;1.40;;;;;;;;;;4919580;29;20055;-68
2023/07/13 05:57:19;;;;;;;2.20;1.17;;;;;;;;;;4918532;29;20418;-68
2023/07/13 05:59:45;;;;;;;2.83;1.30;;;;;;;;;;4927337;29;20036;-69
2023/07/13 06:02:11;;;;;;;2.78;1.77;;;;;;;;;;4918186;29;20224;-68
2023/07/13 06:04:37;;;;;;;4.47;1.67;;;;;;;;;;4934924;29;20123;-72
2023/07/13 06:07:03;;;;;;;3.80;1.45;;;;;;;;;;4932660;29;20024;-69
2023/07/13 06:09:29;;;;;;;4.95;1.48;;;;;;;;;;4906608;29;20369;-69
2023/07/13 06:11:55;;;;;;;4.68;1.38;;;;;;;;;;4908431;29;20027;-70
2023/07/13 06:14:24;;;;;;;3.75;1.48;;;;;;;;;;4926680;29;20111;-68
2023/07/13 06:16:50;;;;;;;1.70;1.17;;;;;;;;;;4922299;29;20504;-69
2023/07/13 06:19:16;;;;;;;6.20;1.50;;;;;;;;;;4925942;29;20024;-70
2023/07/13 06:21:42;;;;;;;9.98;1.27;;;;;;;;;;4936279;29;20389;-69
2023/07/13 06:24:08;;;;;;;7.13;1.65;;;;;;;;;;4935954;29;20032;-68
2023/07/13 06:26:34;;;;;;;7.70;1.40;;;;;;;;;;4936486;29;20062;-67
2023/07/13 06:29:00;;;;;;;2.45;1.40;;;;;;;;;;4935452;29;20485;-68
2023/07/13 06:31:26;;;;;;;3.92;1.90;;;;;;;;;;4930164;29;20028;-68
2023/07/13 06:33:58;;;;;;;1.92;1.33;;;;;;;;;;4927664;29;20094;-68
2023/07/13 06:36:24;;;;;;;4.18;1.50;;;;;;;;;;4913721;29;20020;-68
2023/07/13 06:38:50;;;;;;;7.13;1.73;;;;;;;;;;4928472;29;20031;-66
2023/07/13 06:41:15;;;;;;;4.55;1.40;;;;;;;;;;4922811;29;20489;-68
2023/07/13 06:43:41;;;;;;;6.90;2.33;;;;;;;;;;4914165;29;20040;-71
2023/07/13 06:46:10;;;;;;;2.28;1.30;;;;;;;;;;4907227;29;20036;-69
2023/07/13 06:48:36;;;;;;;2.38;1.30;;;;;;;;;;4912390;29;20040;-68
2023/07/13 06:51:02;;;;;;;5.57;1.52;;;;;;;;;;4920136;29;20107;-68
2023/07/13 06:53:28;;;;;;;5.75;1.60;;;;;;;;;;4919319;29;20374;-69
2023/07/13 06:55:54;;;;;;;3.40;1.40;;;;;;;;;;4925744;29;20071;-69
2023/07/13 06:58:20;;;;;;;4.00;1.50;;;;;;;;;;4926348;29;20372;-68
2023/07/13 07:00:47;;;;;;;2.72;1.42;;;;;;;;;;4924971;29;20028;-68
2023/07/13 07:03:13;;;;;;;2.72;1.33;;;;;;;;;;4923986;29;20024;-69
2023/07/13 07:05:39;;;;;;;5.05;1.50;;;;;;;;;;4935371;29;20028;-71
2023/07/13 07:08:06;;;;;;;5.43;1.10;;;;;;;;;;4926398;29;20020;-69
2023/07/13 07:10:32;;;;;;;5.43;1.20;;;;;;;;;;4927386;29;20032;-69
2023/07/13 07:12:57;;;;;;;3.20;1.38;;;;;;;;;;4935222;29;20127;-68
2023/07/13 07:15:23;;;;;;;4.53;1.98;;;;;;;;;;4935775;29;20028;-68
2023/07/13 07:17:49;;;;;;;3.33;1.05;;;;;;;;;;4935319;29;20366;-68
2023/07/13 07:20:15;;;;;;;2.92;1.20;;;;;;;;;;4930211;29;20051;-69
2023/07/13 07:22:44;;;;;;;6.97;1.20;;;;;;;;;;4935105;29;20031;-62
2023/07/13 07:25:10;;;;;;;1.40;1.00;;;;;;;;;;4924650;29;20031;-63
2023/07/13 07:27:36;;;;;;;3.60;0.82;;;;;;;;;;4910082;29;20024;-62
2023/07/13 07:30:02;;;;;;;3.40;1.15;;;;;;;;;;4922954;29;20032;-63
2023/07/13 07:32:30;;;;;;;2.03;0.90;;;;;;;;;;4917519;29;20032;-62
2023/07/13 07:34:56;;;;;;;3.63;1.40;;;;;;;;;;4929049;29;20078;-63
2023/07/13 07:37:22;;;;;;;2.53;1.13;;;;;;;;;;4935582;29;20082;-62
2023/07/13 07:39:48;;;;;;;3.92;1.30;;;;;;;;;;4933775;29;20067;-62
2023/07/13 07:42:14;;;;;;;4.20;1.10;;;;;;;;;;4921160;29;20512;-62
2023/07/13 07:44:40;;;;;;;7.47;1.48;;;;;;;;;;4915392;29;20474;-65
2023/07/13 07:47:07;;;;;;;4.03;1.30;;;;;;;;;;4931919;29;20382;-63
2023/07/13 07:49:33;;;;;;;3.30;1.08;;;;;;;;;;4934997;29;20031;-63
2023/07/13 07:51:59;;;;;;;4.07;1.00;;;;;;;;;;4934427;29;20048;-62
2023/07/13 07:54:25;;;;;;;3.17;0.95;;;;;;;;;;4935289;29;20118;-62
2023/07/13 07:57:00;;;;;;;5.93;1.17;;;;;;;;;;4934767;29;20111;-64
2023/07/13 07:59:26;;;;;;;4.25;1.30;;;;;;;;;;4931459;29;20043;-64
2023/07/13 08:01:52;;;;;;;3.58;1.33;;;;;;;;;;4928917;29;20544;-64
2023/07/13 08:04:18;;;;;;;4.35;1.23;;;;;;;;;;4934720;29;20044;-64
2023/07/13 08:06:44;;;;;;;4.25;1.10;;;;;;;;;;4931656;29;20067;-64
2023/07/13 08:09:09;;;;;;;3.53;1.15;;;;;;;;;;4916109;29;20509;-64
2023/07/13 08:11:36;;;;;;;5.88;1.40;;;;;;;;;;4919817;29;20039;-64
2023/07/13 08:14:02;;;;;;;7.88;1.50;;;;;;;;;;4934423;29;20028;-64
2023/07/13 08:16:28;;;;;;;5.07;1.08;;;;;;;;;;4931438;29;20029;-64
2023/07/13 08:18:54;;;;;;;2.78;1.20;;;;;;;;;;4929842;29;20027;-64
2023/07/13 08:21:21;;;;;;;2.35;1.13;;;;;;;;;;4917547;29;20478;-64
2023/07/13 08:23:50;;;;;;;6.25;1.30;;;;;;;;;;4933304;29;20094;-65
2023/07/13 08:26:16;;;;;;;2.10;1.05;;;;;;;;;;4929956;29;20040;-65
2023/07/13 08:28:42;;;;;;;3.97;1.17;;;;;;;;;;4919666;29;20020;-67
2023/07/13 08:31:08;;;;;;;2.85;1.30;;;;;;;;;;4916129;29;20103;-65
2023/07/13 08:33:35;;;;;;;7.15;1.23;;;;;;;;;;4920194;29;20052;-65
2023/07/13 08:36:01;;;;;;;6.75;1.38;;;;;;;;;;4921279;29;20027;-65
2023/07/13 08:38:27;;;;;;;6.63;1.58;;;;;;;;;;4934174;29;20024;-65
2023/07/13 08:40:56;;;;;;;2.08;1.13;;;23.90;77.40;;;;;;4923726;29;20028;-65
2023/07/13 08:43:36;;;;;;;7.05;1.50;;;23.90;77.80;;;;;;4930853;29;20035;-66
2023/07/13 08:46:34;;;;;;;4.10;1.30;;;23.80;78.50;;;;;;4918313;29;20040;-65
2023/07/13 08:49:05;;;;;;;2.90;1.05;;;23.60;78.00;;;;;;4928886;29;20605;-65
2023/07/13 08:51:39;;;;;;;2.35;1.10;;;23.70;78.70;;;;;;4922724;29;20378;-65
2023/07/13 08:54:24;;;;;;;2.03;0.93;;;23.70;79.20;;;;;;4927933;29;20051;-65
2023/07/13 08:56:52;;;;;;;4.18;1.13;;;23.70;79.30;;;;;;4914502;29;20028;-65
2023/07/13 08:59:22;;;;;;;1.88;0.90;;;23.90;78.50;;;;;;4930442;29;20491;-65
2023/07/13 09:03:02;;;;;;;5.53;1.73;;;23.90;78.80;;;;;;4933412;29;20027;-65
2023/07/13 09:05:40;;;;;;;4.45;1.17;;;24.00;79.00;;;;;;4801511;29;20095;-65
2023/07/13 09:08:24;;;;;;;3.83;1.38;;;24.00;78.90;;;;;;4846276;29;20046;-65
2023/07/13 09:10:57;;;;;;;4.15;1.10;;;24.00;79.00;;;;;;4855809;29;20037;-65
2023/07/13 09:13:57;;;;;;;3.65;1.30;;;24.00;79.00;;;;;;4856766;29;20456;-65
2023/07/13 09:16:24;;;;;;;6.20;1.20;;;23.80;79.50;;;;;;4833147;29;20119;-65
2023/07/13 09:18:54;;;;;;;4.45;1.15;;;23.80;79.30;;;;;;4835699;29;20030;-65
2023/07/13 09:21:33;;;;;;;3.53;1.50;;;23.80;79.60;;;;;;4852127;29;20041;-64
2023/07/13 09:24:12;;;;;;;2.17;0.98;;;24.00;79.00;;;;;;4853471;29;20052;-65
2023/07/13 09:26:38;;;;;;;3.78;1.13;;;24.10;78.90;;;;;;4849272;29;20041;-66
2023/07/13 09:29:33;;;;;;;5.22;1.33;;;24.10;78.80;;;;;;4843533;29;20143;-66
2023/07/13 09:32:02;;;;;;;5.82;1.10;;;;;;;;;;4836352;29;20026;-65
2023/07/13 09:34:30;;;;;;;4.07;1.17;;;;;;;;;;4848324;29;20168;-64
2023/07/13 09:36:56;;;;;;;6.43;1.20;;;;;;;;;;4901567;29;20394;-64
2023/07/13 09:39:30;;;;;;;2.80;1.13;;;;;;;;;;4911815;29;20020;-63
2023/07/13 09:41:59;;;;;;;3.15;1.40;;;;;;;;;;4899821;29;20044;-64
2023/07/13 09:44:30;;;;;;;2.83;1.40;;;;;;;;;;4906437;29;20047;-64
2023/07/13 09:46:57;;;;;;;9.55;1.23;;;;;;;;;;4914094;29;20762;-64
2023/07/13 09:49:36;;;;;;;3.90;1.20;;;;;;;;;;4914290;29;20159;-64
2023/07/13 09:52:07;;;;;;;4.73;1.40;;;;;;;;;;4914560;29;20035;-64
2023/07/13 09:54:40;;;;;;;10.95;1.60;;;;;;;;;;4914093;29;20115;-64
2023/07/13 09:57:16;;;;;;;4.57;1.33;;;;;;;;;;4896115;29;20051;-64
2023/07/13 09:59:46;;;;;;;4.18;1.55;;;;;;;;;;4883135;29;20037;-64
2023/07/13 10:02:35;;;;;;;7.60;1.42;;;;;;;;;;4896135;29;20099;-64
2023/07/13 10:05:11;;;;;;;2.88;1.30;;;;;;;;;;4894656;29;20143;-64
2023/07/13 10:07:44;;;;;;;4.07;1.83;;;;;;;;;;4895682;29;20025;-65
2023/07/13 10:10:18;;;;;;;7.65;1.40;;;;;;;;;;4895417;29;20073;-62
2023/07/13 10:12:49;;;;;;;2.35;1.25;;;;;;;;;;4898427;29;20036;-64
2023/07/13 10:15:20;;;;;;;5.35;1.08;;;;;;;;;;4894819;29;20031;-64
2023/07/13 10:17:46;;;;;;;4.28;1.35;;;;;;;;;;4898162;29;20028;-64
2023/07/13 10:20:15;;;;;;;2.42;1.45;;;;;;;;;;4898692;29;20040;-64
2023/07/13 10:23:00;;;;;;;4.75;1.40;;;;;;;;;;4893568;29;20024;-65
2023/07/13 10:25:28;;;;;;;4.18;1.42;;;;;;;;;;4898066;29;20112;-63
2023/07/13 10:27:58;;;;;;;3.33;1.20;;;;;;;;;;4894491;29;20108;-64
2023/07/13 10:30:25;;;;;;;;;;;;;;;;;;4890007;29;20028;-64
2023/07/13 10:32:52;;;;;;;6.07;1.65;;;;;;;;;;4889437;29;19908;-64
2023/07/13 10:35:22;;;;;;;4.63;1.20;;;;;;;;;;4900731;29;20131;-63
2023/07/13 10:37:49;;;;;;;;;;;;;;;;;;4898485;29;20545;-64
2023/07/13 10:40:20;;;;;;;3.53;1.15;;;;;;;;;;4898463;29;19908;-64
2023/07/13 10:42:50;;;;;;;6.32;1.40;;;;;;;;;;4898108;29;20446;-65
2023/07/13 10:45:22;;;;;;;3.72;1.48;;;26.90;70.70;;;;;;4898243;29;20156;-64
2023/07/13 10:47:52;;;;;;;8.43;1.50;;;26.90;71.00;;;;;;4898308;29;20048;-64
2023/07/13 10:50:24;;;;;;;4.80;1.17;;;26.90;70.90;;;;;;4898646;29;20494;-64
2023/07/13 10:52:56;;;;;;;4.68;1.23;;;26.80;71.40;;;;;;4898023;29;20116;-63
2023/07/13 10:55:54;;;;;;;4.25;1.20;;;26.90;71.20;;;;;;4897899;29;20064;-64
2023/07/13 10:58:32;;;;;;;4.20;1.85;;;27.00;71.00;;;;;;4898695;29;20037;-64
2023/07/13 11:01:09;;;;;;;2.65;1.30;;;27.10;70.80;;;;;;4897558;29;20103;-64
2023/07/13 11:03:56;;;;;;;5.50;1.42;;;27.00;70.20;;;;;;4898306;29;20040;-64
2023/07/13 11:06:31;;;;;;;5.38;1.10;;;27.00;70.80;;;;;;4902807;29;20048;-64
2023/07/13 11:09:03;;;;;;;6.07;1.10;;;27.00;71.10;;;;;;4902492;29;20028;-64
2023/07/13 11:11:34;;;;;;;3.42;1.30;;;27.00;70.60;;;;;;4898365;29;20053;-64
2023/07/13 11:14:05;;;;;;;3.60;1.40;;;27.00;69.80;;;;;;4897294;29;20625;-65
2023/07/13 11:16:45;;;;;;;9.02;1.60;;;26.90;70.10;;;;;;4898385;29;20036;-65
2023/07/13 11:19:16;;;;;;;3.25;1.30;;;26.70;70.40;;;;;;4898075;29;20024;-65
2023/07/13 11:22:07;;;;;;;3.38;1.52;;;26.80;70.50;;;;;;4887363;29;20501;-66
2023/07/13 11:24:59;;;;;;;6.25;1.75;;;26.90;70.00;;;;;;4898727;29;20443;-65
2023/07/13 11:27:44;;;;;;;1.88;1.05;;;27.00;69.60;;;;;;4895941;29;20398;-64
2023/07/13 11:30:28;;;;;;;3.10;1.13;;;27.00;69.10;;;;;;4886020;29;20051;-64
2023/07/13 11:33:24;;;;;;;4.13;1.63;;;26.90;69.40;;;;;;4896078;29;20040;-65
2023/07/13 11:35:56;;;;;;;6.97;1.42;;;26.70;69.90;;;;;;4864681;29;20073;-65
2023/07/13 11:38:30;;;;;;;3.00;1.50;;;26.70;70.50;;;;;;4879324;29;20033;-64
2023/07/13 11:40:58;;;;;;;3.72;1.95;;;26.80;70.50;;;;;;4877757;29;20033;-64
2023/07/13 11:43:24;;;;;;;3.58;1.05;;;27.00;69.80;;;;;;4878966;29;20057;-64
2023/07/13 11:45:51;;;;;;;3.03;1.17;;;27.30;69.70;;;;;;4877952;29;20457;-64
2023/07/13 11:48:37;;;;;;;2.13;1.27;;;27.50;69.20;;;;;;4879122;29;20111;-64
2023/07/13 11:51:07;;;;;;;6.18;1.30;;;27.80;68.40;;;;;;4878163;29;20068;-64
2023/07/13 11:53:44;;;;;;;4.93;1.20;;;28.00;68.20;;;;;;4879043;29;20029;-64
2023/07/13 11:56:14;;;;;;;4.20;1.20;;;27.80;67.60;;;;;;4878784;29;20390;-64
2023/07/13 11:58:42;;;;;;;6.23;1.70;;;27.30;68.20;;;;;;4877968;29;20375;-66
2023/07/13 12:01:23;;;;;;;3.25;1.20;;;26.70;68.80;;;;;;4897282;29;20291;-64
2023/07/13 12:03:49;;;;;;;7.82;1.40;;;26.40;69.70;;;;;;4886017;29;20494;-65
2023/07/13 12:06:28;;;;;;;5.68;1.60;;;26.50;69.80;;;;;;4897706;29;20033;-64
2023/07/13 12:08:58;;;;;;;4.18;1.30;;;26.80;69.80;;;;;;4896164;29;20060;-64
2023/07/13 12:11:23;;;;;;;4.13;1.70;;;27.00;68.60;;;;;;4896826;29;20036;-65
2023/07/13 12:13:50;;;;;;;3.20;1.05;;;27.30;68.90;;;;;;4895779;29;20044;-65
2023/07/13 12:16:29;;;;;;;3.00;1.30;;;27.40;69.20;;;;;;4897130;29;20058;-65
2023/07/13 12:18:56;;;;;;;5.55;1.50;;;27.30;68.40;;;;;;4896186;29;20123;-64
2023/07/13 12:21:32;;;;;;;2.13;1.00;;;26.90;68.80;;;;;;4896374;29;20467;-64
2023/07/13 12:24:03;;;;;;;3.95;1.42;;;27.00;68.80;;;;;;4895945;29;20119;-65
2023/07/13 12:26:30;;;;;;;3.40;1.33;;;27.10;68.80;;;;;;4897140;29;20052;-65
2023/07/13 12:29:00;;;;;;;5.97;1.50;;;27.40;69.10;;;;;;4895742;29;20056;-63
2023/07/13 12:31:34;;;;;;;2.45;1.10;;;27.90;68.90;;;;;;4899301;29;20024;-63
2023/07/13 12:34:07;;;;;;;3.78;1.50;;;28.40;66.50;;;;;;4911068;29;20070;-65
2023/07/13 12:36:40;;;;;;;5.63;1.52;;;28.60;66.10;;;;;;4936742;29;20019;-64
2023/07/13 12:39:18;;;;;;;5.28;1.48;;;28.70;66.40;;;;;;4941301;29;20031;-65
2023/07/13 12:41:45;;;;;;;5.72;1.52;;;28.60;66.70;;;;;;4924878;29;20043;-65
2023/07/13 12:44:25;;;;;;;3.05;1.70;;;28.40;66.00;;;;;;4934161;29;20102;-64
2023/07/13 12:47:04;;;;;;;5.95;1.73;;;28.20;66.80;;;;;;4927166;29;20036;-64
2023/07/13 12:49:34;;;;;;;8.23;1.30;;;27.80;65.80;;;;;;4910768;29;20059;-64
2023/07/13 12:52:14;;;;;;;2.28;1.33;;;27.50;66.60;;;;;;4921304;29;20030;-64
2023/07/13 12:54:40;;;;;;;3.13;1.47;;;27.40;66.00;;;;;;4933639;29;20110;-65
2023/07/13 12:57:09;;;;;;;4.05;1.52;;;27.60;66.20;;;;;;4918117;29;20128;-64
2023/07/13 12:59:36;;;;;;;8.20;1.70;;;27.90;66.20;;;;;;4933659;29;20388;-65
2023/07/13 13:02:02;;;;;;;3.25;1.58;;;27.90;65.30;;;;;;4915085;29;20470;-65
2023/07/13 13:04:31;;;;;;;2.28;1.20;;;28.20;65.30;;;;;;4920253;29;20111;-65
2023/07/13 13:07:12;;;;;;;3.75;1.42;;;28.30;65.30;;;;;;4897394;29;20318;-65
2023/07/13 13:09:38;;;;;;;4.35;1.35;;;28.30;64.50;;;;;;4912784;29;20425;-67
2023/07/13 13:12:06;;;;;;;3.63;1.30;;;28.30;64.70;;;;;;4927115;29;20031;-65
2023/07/13 13:14:36;;;;;;;4.05;1.38;;;28.50;65.20;;;;;;4923751;29;20382;-65
2023/07/13 13:17:16;;;;;;;3.25;1.60;;;28.60;65.10;;;;;;4929641;29;20032;-65
2023/07/13 13:19:41;;;;;;;5.30;1.23;;;28.70;65.00;;;;;;4924904;29;20035;-65
2023/07/13 13:22:08;;;;;;;6.07;1.75;;;28.80;65.00;;;;;;4927490;29;20108;-64
2023/07/13 13:24:35;;;;;;;6.03;1.65;;;28.90;64.40;;;;;;4925387;29;20039;-64
2023/07/13 13:27:01;;;;;;;5.03;1.77;;;28.90;63.70;;;;;;4915538;29;20024;-64
2023/07/13 13:29:27;;;;;;;4.80;1.35;;;28.70;63.10;;;;;;4924184;29;20036;-64
2023/07/13 13:31:54;;;;;;;3.42;1.80;;;28.80;64.10;;;;;;4920036;29;20035;-64
2023/07/13 13:34:25;;;;;;;2.35;1.40;;;28.90;63.30;;;;;;4932976;29;20529;-64
2023/07/13 13:36:52;;;;;;;3.88;1.27;;;29.00;63.40;;;;;;4933063;29;20028;-64
2023/07/13 13:39:28;;;;;;;3.15;1.70;;;29.10;63.60;;;;;;4930314;29;20029;-65
2023/07/13 13:41:54;;;;;;;3.92;1.67;;;29.20;63.90;;;;;;4921660;29;20401;-64
2023/07/13 13:44:21;;;;;;;8.40;1.70;;;29.40;62.90;;;;;;4933145;29;20036;-65
2023/07/13 13:46:50;;;;;;;3.38;1.30;;;29.60;63.30;;;;;;4935460;29;20063;-65
2023/07/13 13:49:19;;;;;;;3.83;1.30;;;29.50;62.20;;;;;;4937426;29;20031;-65
2023/07/13 13:51:46;;;;;;;1.75;1.17;;;29.50;63.30;;;;;;4936794;29;20083;-63
2023/07/13 13:54:14;;;;;;;3.13;1.50;;;29.60;63.00;;;;;;4937056;29;20507;-63
2023/07/13 13:56:42;;;;;;;4.65;1.50;;;29.60;62.60;;;;;;4920487;29;20036;-66
2023/07/13 13:59:08;;;;;;;2.92;1.48;;;29.50;62.80;;;;;;4916160;29;20040;-65
2023/07/13 14:01:35;;;;;;;4.70;1.55;;;29.10;61.70;;;;;;4929995;29;20090;-65
2023/07/13 14:04:03;;;;;;;2.25;1.30;;;28.70;62.40;;;;;;4917074;29;20063;-65
2023/07/13 14:06:29;;;;;;;5.35;1.52;;;28.50;62.40;;;;;;4923633;29;20063;-65
2023/07/13 14:09:00;;;;;;;2.10;1.25;;;28.30;63.00;;;;;;4921084;29;20075;-65
2023/07/13 14:11:27;;;;;;;3.92;1.15;;;28.50;63.40;;;;;;4917515;29;20394;-65
2023/07/13 14:13:57;;;;;;;3.97;1.45;;;28.70;62.50;;;;;;4915851;29;20497;-65
2023/07/13 14:16:31;;;;;;;4.20;1.30;;;28.80;62.40;;;;;;4923869;29;20428;-65